createdAt,value
2018-07-24T08:34:39.421Z,8.17
2018-07-24T08:37:08.503Z,7.73
2018-07-24T08:39:37.782Z,8.93
2018-07-24T08:42:06.694Z,8.00
2018-07-24T08:44:35.860Z,7.77
2018-07-24T08:47:05.305Z,8.47
2018-07-24T08:49:34.036Z,7.70
2018-07-24T08:52:02.998Z,7.23
2018-07-24T08:54:32.005Z,7.30
2018-07-24T08:57:00.764Z,7.90
2018-07-24T08:59:29.903Z,7.63
2018-07-24T09:01:58.961Z,8.07
2018-07-24T09:04:28.242Z,7.57
2018-07-24T09:06:57.674Z,7.27
2018-07-24T09:09:26.689Z,7.00
2018-07-24T09:11:56.023Z,7.03
2018-07-24T09:14:25.115Z,6.70
2018-07-24T09:16:54.310Z,6.90
2018-07-24T09:19:23.610Z,6.90
2018-07-24T09:21:52.782Z,7.07
2018-07-24T09:24:21.675Z,7.40
2018-07-24T09:26:50.739Z,6.73
2018-07-24T09:29:19.930Z,7.43
2018-07-24T09:31:48.886Z,7.13
2018-07-24T09:34:18.145Z,7.43
2018-07-24T09:36:47.262Z,7.40
2018-07-24T09:39:16.043Z,7.53
2018-07-24T09:41:45.218Z,6.13
2018-07-24T09:44:14.375Z,6.07
2018-07-24T09:46:43.627Z,6.73
2018-07-24T09:49:12.763Z,7.00
2018-07-24T09:51:41.844Z,7.17
2018-07-24T09:54:10.835Z,7.13
2018-07-24T09:56:40.082Z,7.40
2018-07-24T09:59:09.133Z,7.90
2018-07-24T10:01:37.900Z,5.93
2018-07-24T10:04:06.876Z,5.00
2018-07-24T10:06:36.222Z,5.73
2018-07-24T10:09:08.189Z,6.00
2018-07-24T10:11:37.491Z,5.47
2018-07-24T10:14:06.410Z,5.73
2018-07-24T10:16:35.525Z,6.20
2018-07-24T10:19:04.565Z,6.53
2018-07-24T10:21:33.594Z,7.27
2018-07-24T10:24:02.907Z,7.10
2018-07-24T10:26:32.166Z,7.33
2018-07-24T10:29:01.602Z,7.23
2018-07-24T10:31:30.787Z,8.30
2018-07-24T10:33:59.616Z,8.03
2018-07-24T10:36:29.184Z,9.23
2018-07-24T10:38:58.086Z,8.97
2018-07-24T10:41:27.139Z,10.90
2018-07-24T10:43:56.251Z,9.83
2018-07-24T10:46:25.093Z,10.17
2018-07-24T10:48:54.263Z,10.67
2018-07-24T10:51:23.406Z,10.90
2018-07-24T10:53:52.501Z,10.43
2018-07-24T10:56:21.239Z,9.77
2018-07-24T10:58:50.268Z,10.20
2018-07-24T11:01:19.546Z,10.30
2018-07-24T11:03:48.495Z,11.00
2018-07-24T11:06:17.755Z,10.87
2018-07-24T11:08:47.051Z,10.83
2018-07-24T11:11:16.314Z,10.57
2018-07-24T11:13:45.501Z,10.23
2018-07-24T11:16:14.681Z,11.67
2018-07-24T11:18:43.642Z,12.20
2018-07-24T11:21:12.454Z,11.90
2018-07-24T11:23:41.561Z,12.13
2018-07-24T11:26:10.432Z,11.47
2018-07-24T11:28:40.362Z,11.90
2018-07-24T11:31:09.263Z,11.30
2018-07-24T11:33:38.443Z,11.43
2018-07-24T11:36:07.824Z,11.70
2018-07-24T11:38:36.788Z,11.33
2018-07-24T11:41:06.143Z,11.63
2018-07-24T11:43:35.289Z,11.17
2018-07-24T11:46:04.977Z,10.70
2018-07-24T11:48:34.146Z,10.13
2018-07-24T11:51:03.179Z,10.03
2018-07-24T11:53:32.379Z,9.83
2018-07-24T11:56:01.440Z,9.40
2018-07-24T11:58:30.781Z,9.00
2018-07-24T12:00:59.813Z,9.50
2018-07-24T12:03:28.995Z,8.70
2018-07-24T12:05:58.202Z,8.70
2018-07-24T12:08:26.984Z,9.20
2018-07-24T12:10:56.390Z,9.17
2018-07-24T12:13:25.497Z,9.10
2018-07-24T12:15:54.622Z,9.27
2018-07-24T12:18:23.778Z,8.73
2018-07-24T12:20:53.040Z,8.90
2018-07-24T12:23:22.239Z,8.87
2018-07-24T12:25:51.270Z,8.07
2018-07-24T12:28:20.178Z,8.17
2018-07-24T12:30:49.576Z,8.27
2018-07-24T12:33:18.836Z,7.87
2018-07-24T12:35:48.839Z,8.10
2018-07-24T12:38:20.700Z,8.17
2018-07-24T12:40:50.026Z,8.27
2018-07-24T12:43:19.334Z,7.83
2018-07-24T12:45:48.173Z,8.70
2018-07-24T12:48:16.899Z,9.30
2018-07-24T12:50:45.931Z,8.27
2018-07-24T12:53:15.048Z,8.23
2018-07-24T12:55:43.987Z,7.30
2018-07-24T12:58:13.320Z,8.40
2018-07-24T13:00:42.330Z,8.00
2018-07-24T13:03:11.374Z,7.90
2018-07-24T13:05:40.259Z,7.87
2018-07-24T13:08:09.351Z,7.33
2018-07-24T13:10:38.398Z,6.30
2018-07-24T13:13:07.451Z,6.43
2018-07-24T13:15:36.554Z,5.63
2018-07-24T13:18:05.722Z,6.57
2018-07-24T13:20:34.591Z,6.60
2018-07-24T13:23:03.491Z,6.70
2018-07-24T13:25:32.550Z,6.47
2018-07-24T13:28:01.643Z,6.77
2018-07-24T13:30:30.718Z,6.70
2018-07-24T13:32:59.611Z,6.50
2018-07-24T13:35:28.699Z,6.67
2018-07-24T13:37:57.935Z,6.87
2018-07-24T13:40:26.943Z,5.90
2018-07-24T13:42:55.997Z,5.80
2018-07-24T13:45:25.102Z,6.10
2018-07-24T13:47:54.171Z,6.33
2018-07-24T13:50:23.282Z,5.57
2018-07-24T13:52:52.254Z,5.83
2018-07-24T13:55:21.326Z,6.27
2018-07-24T13:57:50.138Z,5.87
2018-07-24T14:00:18.892Z,6.33
2018-07-24T14:02:47.782Z,6.47
2018-07-24T14:05:16.730Z,6.63
2018-07-24T14:07:45.566Z,6.50
2018-07-24T14:10:14.755Z,5.83
2018-07-24T14:12:43.833Z,6.10
2018-07-24T14:15:13.062Z,6.00
2018-07-24T14:17:42.233Z,6.53
2018-07-24T14:20:11.433Z,6.27
2018-07-24T14:22:40.624Z,6.63
2018-07-24T14:25:09.831Z,6.40
2018-07-24T14:27:38.985Z,5.97
2018-07-24T14:30:08.267Z,5.20
2018-07-24T14:32:37.595Z,6.13
2018-07-24T14:35:06.887Z,6.00
2018-07-24T14:37:35.870Z,5.70
2018-07-24T14:40:05.329Z,5.87
2018-07-24T14:42:34.577Z,5.57
2018-07-24T14:45:03.545Z,6.00
2018-07-24T14:47:32.669Z,5.60
2018-07-24T14:50:01.711Z,5.70
2018-07-24T14:52:30.923Z,5.80
2018-07-24T14:55:00.126Z,6.23
2018-07-24T14:57:29.235Z,5.80
2018-07-24T14:59:58.495Z,5.33
2018-07-24T15:02:27.638Z,6.20
2018-07-24T15:04:56.704Z,5.77
2018-07-24T15:07:25.925Z,5.57
2018-07-24T15:09:54.958Z,5.73
2018-07-24T15:12:24.245Z,6.40
2018-07-24T15:14:53.401Z,6.50
2018-07-24T15:17:22.198Z,6.53
2018-07-24T15:19:50.978Z,6.40
2018-07-24T15:22:20.046Z,6.10
2018-07-24T15:24:48.825Z,6.27
2018-07-24T15:27:18.051Z,6.00
2018-07-24T15:29:47.150Z,5.60
2018-07-24T15:32:16.096Z,5.83
2018-07-24T15:34:44.977Z,5.73
2018-07-24T15:37:14.042Z,6.13
2018-07-24T15:39:43.238Z,5.73
2018-07-24T15:42:12.383Z,6.03
2018-07-24T15:44:41.496Z,6.43
2018-07-24T15:47:10.563Z,6.30
2018-07-24T15:49:39.751Z,5.83
2018-07-24T15:52:08.835Z,5.93
2018-07-24T15:54:38.091Z,6.27
2018-07-24T15:57:07.178Z,7.00
2018-07-24T15:59:36.383Z,10.13
2018-07-24T16:02:05.638Z,6.60
2018-07-24T16:04:34.694Z,8.20
2018-07-24T16:07:03.923Z,9.80
2018-07-24T16:09:33.180Z,9.63
2018-07-24T16:12:02.258Z,8.43
2018-07-24T16:14:31.242Z,13.37
2018-07-24T16:17:00.754Z,6.27
2018-07-24T16:19:29.563Z,12.40
2018-07-24T16:21:58.658Z,12.00
2018-07-24T16:24:27.943Z,10.70
2018-07-24T16:26:57.352Z,10.50
2018-07-24T16:29:26.269Z,18.17
2018-07-24T16:31:55.413Z,10.03
2018-07-24T16:34:24.628Z,6.33
2018-07-24T16:36:53.919Z,5.80
2018-07-24T16:39:23.080Z,6.00
2018-07-24T16:41:51.943Z,5.80
2018-07-24T16:44:21.367Z,5.93
2018-07-24T16:46:50.680Z,5.40
2018-07-24T16:49:19.461Z,5.43
2018-07-24T16:51:48.908Z,5.90
2018-07-24T16:54:18.477Z,6.00
2018-07-24T16:56:47.545Z,5.87
2018-07-24T16:59:16.805Z,5.80
2018-07-24T17:01:45.924Z,6.17
2018-07-24T17:04:15.181Z,6.30
2018-07-24T17:06:44.261Z,5.97
2018-07-24T17:09:13.411Z,6.47
2018-07-24T17:11:42.533Z,5.67
2018-07-24T17:14:11.431Z,6.33
2018-07-24T17:16:40.606Z,6.00
2018-07-24T17:19:09.450Z,6.10
2018-07-24T17:21:38.269Z,5.93
2018-07-24T17:24:07.311Z,5.90
2018-07-24T17:26:36.346Z,6.00
2018-07-24T17:29:05.415Z,6.27
2018-07-24T17:31:34.677Z,6.20
2018-07-24T17:34:03.949Z,6.33
2018-07-24T17:36:32.905Z,6.90
2018-07-24T17:39:01.843Z,6.57
2018-07-24T17:41:30.963Z,6.87
2018-07-24T17:44:00.265Z,6.17
2018-07-24T17:46:29.492Z,6.77
2018-07-24T17:48:58.586Z,6.63
2018-07-24T17:51:27.883Z,6.27
2018-07-24T17:53:56.969Z,6.30
2018-07-24T17:56:26.213Z,7.10
2018-07-24T17:58:55.314Z,6.50
2018-07-24T18:01:24.255Z,7.00
2018-07-24T18:03:53.348Z,6.60
2018-07-24T18:06:22.603Z,6.70
2018-07-24T18:08:51.366Z,7.03
2018-07-24T18:11:20.252Z,6.40
2018-07-24T18:13:49.126Z,6.83
2018-07-24T18:16:18.089Z,6.80
2018-07-24T18:18:47.163Z,7.40
2018-07-24T18:21:16.278Z,7.17
2018-07-24T18:23:45.583Z,7.20
2018-07-24T18:26:14.599Z,6.80
2018-07-24T18:28:43.768Z,7.13
2018-07-24T18:31:12.902Z,7.93
2018-07-24T18:33:42.044Z,7.90
2018-07-24T18:36:11.059Z,8.40
2018-07-24T18:38:40.297Z,7.80
2018-07-24T18:41:09.323Z,8.27
2018-07-24T18:43:38.169Z,7.90
2018-07-24T18:46:07.450Z,8.07
2018-07-24T18:48:36.439Z,8.67
2018-07-24T18:51:05.570Z,8.67
2018-07-24T18:53:34.707Z,7.90
2018-07-24T18:56:03.872Z,7.87
2018-07-24T18:58:32.991Z,8.57
2018-07-24T19:01:02.186Z,8.60
2018-07-24T19:03:31.273Z,8.63
2018-07-24T19:06:00.453Z,8.57
2018-07-24T19:08:29.552Z,8.77
2018-07-24T19:10:58.787Z,8.70
2018-07-24T19:13:27.793Z,9.13
2018-07-24T19:15:56.657Z,9.07
2018-07-24T19:18:25.706Z,9.43
2018-07-24T19:20:54.607Z,9.13
2018-07-24T19:23:23.896Z,9.50
2018-07-24T19:25:53.042Z,9.63
2018-07-24T19:28:22.429Z,8.93
2018-07-24T19:30:51.664Z,9.67
2018-07-24T19:33:20.856Z,10.17
2018-07-24T19:35:49.975Z,10.07
2018-07-24T19:38:19.016Z,10.50
2018-07-24T19:40:47.963Z,10.63
2018-07-24T19:43:16.809Z,10.37
2018-07-24T19:45:46.073Z,10.27
2018-07-24T19:48:15.346Z,10.37
2018-07-24T19:50:44.562Z,10.83
2018-07-24T19:53:13.870Z,10.90
2018-07-24T19:55:42.687Z,9.97
2018-07-24T19:58:11.705Z,10.23
2018-07-24T20:00:40.514Z,10.30
2018-07-24T20:03:09.752Z,10.17
2018-07-24T20:05:38.764Z,10.17
2018-07-24T20:08:07.934Z,9.80
2018-07-24T20:10:37.178Z,10.70
2018-07-24T20:13:06.283Z,10.10
2018-07-24T20:15:35.007Z,10.33
2018-07-24T20:18:04.315Z,10.00
2018-07-24T20:20:33.427Z,10.53
2018-07-24T20:23:02.519Z,10.33
2018-07-24T20:25:31.808Z,10.70
2018-07-24T20:28:01.006Z,10.63
2018-07-24T20:30:30.039Z,10.30
2018-07-24T20:32:59.377Z,10.17
2018-07-24T20:35:28.588Z,10.60
2018-07-24T20:37:57.567Z,10.23
2018-07-24T20:40:26.825Z,10.13
2018-07-24T20:42:55.972Z,10.20
2018-07-24T20:45:25.027Z,10.67
2018-07-24T20:47:53.879Z,10.03
2018-07-24T20:50:22.767Z,11.13
2018-07-24T20:52:52.145Z,10.00
2018-07-24T20:55:21.261Z,10.50
2018-07-24T20:57:50.451Z,10.40
2018-07-24T21:00:19.628Z,10.03
2018-07-24T21:02:48.588Z,10.43
2018-07-24T21:05:17.438Z,10.80
2018-07-24T21:07:46.528Z,11.40
2018-07-24T21:10:18.016Z,12.03
2018-07-24T21:12:48.387Z,11.57
2018-07-24T21:15:18.299Z,11.83
2018-07-24T21:17:47.715Z,11.80
2018-07-24T21:20:16.776Z,11.90
2018-07-24T21:22:45.963Z,12.40
2018-07-24T21:25:15.170Z,11.67
2018-07-24T21:27:44.299Z,12.47
2018-07-24T21:30:13.562Z,12.43
2018-07-24T21:32:42.502Z,12.83
2018-07-24T21:35:11.585Z,13.13
2018-07-24T21:37:40.664Z,12.63
2018-07-24T21:40:09.771Z,12.33
2018-07-24T21:42:38.842Z,12.37
2018-07-24T21:45:07.887Z,13.57
2018-07-24T21:47:36.743Z,13.40
2018-07-24T21:50:05.622Z,13.10
2018-07-24T21:52:34.799Z,13.97
2018-07-24T21:55:03.903Z,12.80
2018-07-24T21:57:33.052Z,13.27
2018-07-24T22:00:01.951Z,13.27
2018-07-24T22:02:30.741Z,12.90
2018-07-24T22:04:59.791Z,12.47
2018-07-24T22:07:28.867Z,12.50
2018-07-24T22:09:57.713Z,12.87
2018-07-24T22:12:26.956Z,12.90
2018-07-24T22:14:55.997Z,12.87
2018-07-24T22:17:25.243Z,12.60
2018-07-24T22:19:54.498Z,13.40
2018-07-24T22:22:23.303Z,12.73
2018-07-24T22:24:52.430Z,13.73
2018-07-24T22:27:21.514Z,12.83
2018-07-24T22:29:50.692Z,13.47
2018-07-24T22:32:19.769Z,13.10
2018-07-24T22:34:48.895Z,13.30
2018-07-24T22:37:18.058Z,12.13
2018-07-24T22:39:46.845Z,13.10
2018-07-24T22:42:16.038Z,13.50
2018-07-24T22:44:45.246Z,14.03
2018-07-24T22:47:14.465Z,13.50
2018-07-24T22:49:43.815Z,13.37
2018-07-24T22:52:12.871Z,13.23
2018-07-24T22:54:41.670Z,12.17
2018-07-24T22:57:10.588Z,12.43
2018-07-24T22:59:39.839Z,12.87
2018-07-24T23:02:08.990Z,12.00
2018-07-24T23:04:38.234Z,12.80
2018-07-24T23:07:07.475Z,11.87
2018-07-24T23:09:36.706Z,11.93
2018-07-24T23:12:06.031Z,12.33
2018-07-24T23:14:35.181Z,12.00
2018-07-24T23:17:04.361Z,12.93
2018-07-24T23:19:33.192Z,12.93
2018-07-24T23:22:02.377Z,12.87
2018-07-24T23:24:31.538Z,12.43
2018-07-24T23:27:00.697Z,11.97
2018-07-24T23:29:29.443Z,12.87
2018-07-24T23:31:58.646Z,12.33
2018-07-24T23:34:27.321Z,11.57
2018-07-24T23:36:56.484Z,12.40
2018-07-24T23:39:25.412Z,12.27
2018-07-24T23:41:54.562Z,12.30
2018-07-24T23:44:23.578Z,12.07
2018-07-24T23:46:52.359Z,12.20
2018-07-24T23:49:21.469Z,11.77
2018-07-24T23:51:50.554Z,11.57
2018-07-24T23:54:19.759Z,12.03
2018-07-24T23:56:49.063Z,12.03
2018-07-24T23:59:18.266Z,11.60
